Impacts TAF Board INFO
FOR SITUATIONAL AWARENESS. NOT TO BE USED FOR FLIGHT PLANNING PURPOSES.
IDs:

KMIA - Miami Intl, FL, US

Issued at 1131 UTC 25 Sep 2017
Updated at 1332 UTC 25 Sep 2017
Potential Impact None Slight Moderate High
Time1253Z 25/14Z 25/15Z 25/16Z 25/17Z 25/18Z 25/19Z 25/20Z 25/21Z 25/22Z 25/23Z 26/00Z 26/01Z 26/02Z>>
Type OBS PRVL PRVL PRVL PRVL PRVL PRVL PRVL PRVL
  [PRB30]  
PRVL
  [PRB30]  
PRVL
  [PRB30]  
PRVL PRVL PRVL
VIS 10 >6 >6 >6 >6 >6 >6 >6 >6
  [4]  
>6
  [4]  
>6
  [4]  
>6 >6 >6
CIG 50 -- -- -- -- -- -- -- --
  [25]  
--
  [25]  
--
  [25]  
-- -- --
Cover BKN FEW FEW FEW FEW FEW SCT SCT SCT
  [BKN]  
SCT
  [BKN]  
SCT
  [BKN]  
FEW FEW FEW
FltCat VFR VFR VFR VFR VFR VFR VFR VFR VFR
  [MVFR]  
VFR
  [MVFR]  
VFR
  [MVFR]  
VFR VFR VFR
WX -- -- -- -- -- -- VCSH VCSH VCSH
  [SHRA]  
VCSH
  [SHRA]  
VCSH
  [SHRA]  
-- -- --
WDir VRB 320 320 320 320 320 160 160 160
[160]
160
[160]
160
[160]
VRB VRB VRB
WSpd 0 5 5 5 5 5 10 10 10
  [10]  
10
  [10]  
10
  [10]  
3 3 3
WGst -- -- -- -- -- -- -- -- --
  [--]  
--
  [--]  
--
  [--]  
-- -- --

Raw TAF
KMIA 251131Z 2512/2612 00000KT P6SM FEW040 FEW060 SCT250
  FM251400 32005KT P6SM FEW030
  FM251900 16010KT P6SM VCSH SCT035
  PROB30 2521/2524 4SM SHRA SCT015 BKN025
  FM260000 VRB03KT P6SM FEW025


Raw METAR
KMIA 251253Z 00000KT 10SM FEW025 SCT043 BKN050 28/24 A2991 RMK AO2 SLP130 CB DSNT SE-SW MOV E T02780244
KMIA 251205Z 00000KT 10SM FEW025 BKN043 28/24 A2990 RMK AO2 CB DSNT S-SW T02780244
KMIA 251153Z 03003KT 10SM FEW025 SCT060 SCT250 28/24 A2989 RMK AO2 SLP122 CB DSNT S-SW MOV NE T02780244 10278 20272 53016
KMIA 251053Z 00000KT 10SM FEW055 SCT080 SCT250 28/24 A2987 RMK AO2 SLP115 T02780244

METAR Board
Radar Display
Forecast Discussion

FOR SITUATIONAL AWARENESS. NOT TO BE USED FOR FLIGHT PLANNING PURPOSES.